sensor_id;sensor_type;location;lat;lon;timestamp;pressure;altitude;pressure_sealevel;temperature;humidity
48622;BME280;34421;48.944;9.460;2023-05-15T00:02:17;98079.41;;;11.59;72.34
48622;BME280;34421;48.944;9.460;2023-05-15T00:04:42;98077.19;;;11.56;73.26
48622;BME280;34421;48.944;9.460;2023-05-15T00:07:07;98070.25;;;11.55;73.16
48622;BME280;34421;48.944;9.460;2023-05-15T00:09:34;98076.63;;;11.54;72.32
48622;BME280;34421;48.944;9.460;2023-05-15T00:11:59;98074.63;;;11.50;72.77
48622;BME280;34421;48.944;9.460;2023-05-15T00:14:24;98075.31;;;11.45;73.08
48622;BME280;34421;48.944;9.460;2023-05-15T00:16:50;98079.25;;;11.43;73.12
48622;BME280;34421;48.944;9.460;2023-05-15T00:19:15;98076.19;;;11.39;74.18
48622;BME280;34421;48.944;9.460;2023-05-15T00:21:41;98071.91;;;11.38;73.92
48622;BME280;34421;48.944;9.460;2023-05-15T00:24:06;98073.97;;;11.36;73.53
48622;BME280;34421;48.944;9.460;2023-05-15T00:26:31;98076.06;;;11.34;74.45
48622;BME280;34421;48.944;9.460;2023-05-15T00:28:57;98072.22;;;11.30;73.70
48622;BME280;34421;48.944;9.460;2023-05-15T00:31:22;98078.59;;;11.29;74.14
48622;BME280;34421;48.944;9.460;2023-05-15T00:33:47;98072.66;;;11.27;74.21
48622;BME280;34421;48.944;9.460;2023-05-15T00:36:13;98068.97;;;11.28;73.45
48622;BME280;34421;48.944;9.460;2023-05-15T00:38:38;98076.97;;;11.28;73.75
48622;BME280;34421;48.944;9.460;2023-05-15T00:41:05;98077.53;;;11.30;73.86
48622;BME280;34421;48.944;9.460;2023-05-15T00:43:31;98074.44;;;11.33;73.61
48622;BME280;34421;48.944;9.460;2023-05-15T00:45:58;98076.06;;;11.34;72.91
48622;BME280;34421;48.944;9.460;2023-05-15T00:48:25;98078.28;;;11.37;73.48
48622;BME280;34421;48.944;9.460;2023-05-15T00:50:52;98082.34;;;11.39;74.01
48622;BME280;34421;48.944;9.460;2023-05-15T00:53:17;98074.44;;;11.33;73.91
48622;BME280;34421;48.944;9.460;2023-05-15T00:55:45;98076.06;;;11.34;73.51
48622;BME280;34421;48.944;9.460;2023-05-15T00:58:15;98076.63;;;11.36;73.71
48622;BME280;34421;48.944;9.460;2023-05-15T01:00:45;98075.16;;;11.40;74.15
48622;BME280;34421;48.944;9.460;2023-05-15T01:03:11;98087.25;;;11.43;74.52
48622;BME280;34421;48.944;9.460;2023-05-15T01:05:36;98085.38;;;11.43;73.62
48622;BME280;34421;48.944;9.460;2023-05-15T01:09:11;98092.78;;;11.41;73.56
48622;BME280;34421;48.944;9.460;2023-05-15T01:11:07;98091.31;;;11.45;73.78
48622;BME280;34421;48.944;9.460;2023-05-15T01:13:33;98082.63;;;11.50;74.14
48622;BME280;34421;48.944;9.460;2023-05-15T01:15:58;98078.00;;;11.57;74.52
48622;BME280;34421;48.944;9.460;2023-05-15T01:18:23;98074.22;;;11.64;73.96
48622;BME280;34421;48.944;9.460;2023-05-15T01:31:37;98080.53;;;11.82;73.72
48622;BME280;34421;48.944;9.460;2023-05-15T01:34:07;98077.44;;;11.85;74.08
48622;BME280;34421;48.944;9.460;2023-05-15T01:36:45;98075.13;;;11.89;74.42
48622;BME280;34421;48.944;9.460;2023-05-15T01:39:15;98072.25;;;11.90;73.50
48622;BME280;34421;48.944;9.460;2023-05-15T01:42:02;98069.13;;;11.93;74.06
48622;BME280;34421;48.944;9.460;2023-05-15T01:44:33;98072.13;;;11.97;73.49
48622;BME280;34421;48.944;9.460;2023-05-15T01:47:05;98069.69;;;11.95;74.00
48622;BME280;34421;48.944;9.460;2023-05-15T01:49:31;98066.81;;;11.97;73.79
48622;BME280;34421;48.944;9.460;2023-05-15T01:52:12;98068.06;;;11.94;74.27
48622;BME280;34421;48.944;9.460;2023-05-15T01:54:38;98071.53;;;11.95;73.63
48622;BME280;34421;48.944;9.460;2023-05-15T01:57:06;98084.06;;;11.94;73.84
48622;BME280;34421;48.944;9.460;2023-05-15T01:59:34;98070.94;;;11.93;74.64
48622;BME280;34421;48.944;9.460;2023-05-15T02:02:01;98080.81;;;11.92;74.16
48622;BME280;34421;48.944;9.460;2023-05-15T02:04:28;98075.94;;;11.89;74.50
48622;BME280;34421;48.944;9.460;2023-05-15T02:06:54;98073.94;;;11.84;74.82
48622;BME280;34421;48.944;9.460;2023-05-15T02:09:21;98069.28;;;11.80;74.76
48622;BME280;34421;48.944;9.460;2023-05-15T02:11:48;98072.03;;;11.73;74.71
48622;BME280;34421;48.944;9.460;2023-05-15T02:14:15;98077.47;;;11.67;74.00
48622;BME280;34421;48.944;9.460;2023-05-15T02:16:41;98076.66;;;11.66;74.62
48622;BME280;34421;48.944;9.460;2023-05-15T02:19:07;98077.78;;;11.58;75.47
48622;BME280;34421;48.944;9.460;2023-05-15T02:21:33;98080.56;;;11.52;74.74
48622;BME280;34421;48.944;9.460;2023-05-15T02:23:58;98071.59;;;11.46;74.91
48622;BME280;34421;48.944;9.460;2023-05-15T02:26:35;98083.31;;;11.45;75.17
48622;BME280;34421;48.944;9.460;2023-05-15T02:29:33;98081.06;;;11.42;75.13
48622;BME280;34421;48.944;9.460;2023-05-15T02:32:29;98065.66;;;11.44;75.99
48622;BME280;34421;48.944;9.460;2023-05-15T02:35:21;98076.94;;;11.46;75.92
48622;BME280;34421;48.944;9.460;2023-05-15T02:37:53;98072.19;;;11.48;74.99
48622;BME280;34421;48.944;9.460;2023-05-15T02:40:19;98080.75;;;11.50;75.06
48622;BME280;34421;48.944;9.460;2023-05-15T02:42:48;98078.09;;;11.50;75.51
48622;BME280;34421;48.944;9.460;2023-05-15T02:45:14;98076.84;;;11.53;74.96
48622;BME280;34421;48.944;9.460;2023-05-15T02:47:41;98076.63;;;11.54;75.06
48622;BME280;34421;48.944;9.460;2023-05-15T02:50:06;98075.56;;;11.55;74.99
48622;BME280;34421;48.944;9.460;2023-05-15T02:52:33;98068.19;;;11.57;75.19
48622;BME280;34421;48.944;9.460;2023-05-15T02:54:59;98064.91;;;11.55;75.69
48622;BME280;34421;48.944;9.460;2023-05-15T02:57:24;98072.09;;;11.55;75.31
48622;BME280;34421;48.944;9.460;2023-05-15T02:59:52;98069.44;;;11.55;75.74
48622;BME280;34421;48.944;9.460;2023-05-15T03:02:17;98073.38;;;11.52;75.31
48622;BME280;34421;48.944;9.460;2023-05-15T03:04:42;98074.78;;;11.55;75.93
48622;BME280;34421;48.944;9.460;2023-05-15T03:07:08;98073.25;;;11.59;75.42
48622;BME280;34421;48.944;9.460;2023-05-15T03:09:33;98073.88;;;11.61;75.05
48622;BME280;34421;48.944;9.460;2023-05-15T03:11:58;98073.63;;;11.62;75.58
48622;BME280;34421;48.944;9.460;2023-05-15T03:14:24;98080.81;;;11.62;75.18
48622;BME280;34421;48.944;9.460;2023-05-15T03:16:49;98069.94;;;11.63;75.92
48622;BME280;34421;48.944;9.460;2023-05-15T03:19:14;98078.50;;;11.66;75.04
48622;BME280;34421;48.944;9.460;2023-05-15T03:21:39;98068.88;;;11.64;75.61
48622;BME280;34421;48.944;9.460;2023-05-15T03:24:05;98070.97;;;11.62;75.68
48622;BME280;34421;48.944;9.460;2023-05-15T03:26:30;98070.38;;;11.60;75.61
48622;BME280;34421;48.944;9.460;2023-05-15T03:28:56;98071.66;;;11.58;76.10
48622;BME280;34421;48.944;9.460;2023-05-15T03:31:22;98064.91;;;11.55;75.38
48622;BME280;34421;48.944;9.460;2023-05-15T03:33:48;98070.69;;;11.52;75.90
48622;BME280;34421;48.944;9.460;2023-05-15T03:36:14;98066.41;;;11.51;75.76
48622;BME280;34421;48.944;9.460;2023-05-15T03:38:39;98066.97;;;11.53;76.03
48622;BME280;34421;48.944;9.460;2023-05-15T03:41:05;98073.97;;;11.54;75.05
48622;BME280;34421;48.944;9.460;2023-05-15T03:43:30;98076.63;;;11.54;74.91
48622;BME280;34421;48.944;9.460;2023-05-15T03:45:55;98076.03;;;11.52;75.46
48622;BME280;34421;48.944;9.460;2023-05-15T03:48:21;98068.69;;;11.48;75.16
48622;BME280;34421;48.944;9.460;2023-05-15T03:50:46;98069.16;;;11.45;75.80
48622;BME280;34421;48.944;9.460;2023-05-15T03:53:11;98072.50;;;11.40;74.79
48622;BME280;34421;48.944;9.460;2023-05-15T03:55:37;98070.50;;;11.35;75.26
48622;BME280;34421;48.944;9.460;2023-05-15T03:58:02;98072.00;;;11.31;75.21
48622;BME280;34421;48.944;9.460;2023-05-15T04:00:27;98066.31;;;11.28;75.15
48622;BME280;34421;48.944;9.460;2023-05-15T04:02:53;98071.03;;;11.26;74.54
48622;BME280;34421;48.944;9.460;2023-05-15T04:05:18;98068.81;;;11.23;74.93
48622;BME280;34421;48.944;9.460;2023-05-15T04:07:45;98063.50;;;11.23;74.92
48622;BME280;34421;48.944;9.460;2023-05-15T04:10:11;98065.34;;;11.22;74.92
48622;BME280;34421;48.944;9.460;2023-05-15T04:12:36;98070.88;;;11.21;74.52
48622;BME280;34421;48.944;9.460;2023-05-15T04:15:21;98068.69;;;11.17;75.15
48622;BME280;34421;48.944;9.460;2023-05-15T04:17:48;98077.72;;;11.16;75.55
48622;BME280;34421;48.944;9.460;2023-05-15T04:20:16;98081.78;;;11.19;75.00
48622;BME280;34421;48.944;9.460;2023-05-15T04:22:42;98078.88;;;11.21;74.66
48622;BME280;34421;48.944;9.460;2023-05-15T04:25:08;98081.34;;;11.22;74.61
48622;BME280;34421;48.944;9.460;2023-05-15T04:27:35;98085.41;;;11.25;74.75
48622;BME280;34421;48.944;9.460;2023-05-15T04:30:01;98078.78;;;11.27;74.70
48622;BME280;34421;48.944;9.460;2023-05-15T04:32:27;98089.41;;;11.34;75.03
48622;BME280;34421;48.944;9.460;2023-05-15T04:34:53;98091.63;;;11.37;74.29
48622;BME280;34421;48.944;9.460;2023-05-15T04:37:18;98082.94;;;11.41;74.27
48622;BME280;34421;48.944;9.460;2023-05-15T04:39:43;98082.28;;;11.46;74.93
48622;BME280;34421;48.944;9.460;2023-05-15T04:42:08;98089.56;;;11.51;74.61
48622;BME280;34421;48.944;9.460;2023-05-15T04:44:34;98079.84;;;11.56;74.41
48622;BME280;34421;48.944;9.460;2023-05-15T04:47:00;98084.44;;;11.68;74.26
48622;BME280;34421;48.944;9.460;2023-05-15T04:49:25;98089.13;;;11.84;74.04
48622;BME280;34421;48.944;9.460;2023-05-15T04:51:50;98081.53;;;11.99;73.86
48622;BME280;34421;48.944;9.460;2023-05-15T04:54:15;98081.69;;;12.16;73.68
48622;BME280;34421;48.944;9.460;2023-05-15T04:56:41;98069.53;;;12.32;72.84
48622;BME280;34421;48.944;9.460;2023-05-15T04:59:06;98077.09;;;12.47;73.29
48622;BME280;34421;48.944;9.460;2023-05-15T05:01:31;98088.09;;;12.62;72.74
48622;BME280;34421;48.944;9.460;2023-05-15T05:03:57;98079.84;;;12.75;72.02
48622;BME280;34421;48.944;9.460;2023-05-15T05:06:22;98081.81;;;12.92;72.06
48622;BME280;34421;48.944;9.460;2023-05-15T05:08:48;98087.59;;;13.12;71.55
48622;BME280;34421;48.944;9.460;2023-05-15T05:11:13;98089.22;;;13.25;70.92
48622;BME280;34421;48.944;9.460;2023-05-15T05:13:38;98089.78;;;13.27;70.89
48622;BME280;34421;48.944;9.460;2023-05-15T05:16:04;98090.00;;;13.26;71.05
48622;BME280;34421;48.944;9.460;2023-05-15T05:18:29;98092.69;;;13.26;70.67
48622;BME280;34421;48.944;9.460;2023-05-15T05:21:01;98098.94;;;13.31;70.76
48622;BME280;34421;48.944;9.460;2023-05-15T05:23:28;98091.16;;;13.41;70.71
48622;BME280;34421;48.944;9.460;2023-05-15T05:25:53;98097.25;;;13.54;70.05
48622;BME280;34421;48.944;9.460;2023-05-15T05:28:19;98107.91;;;13.65;69.66
48622;BME280;34421;48.944;9.460;2023-05-15T05:30:44;98099.59;;;13.79;69.32
48622;BME280;34421;48.944;9.460;2023-05-15T05:33:10;98097.59;;;14.03;69.03
48622;BME280;34421;48.944;9.460;2023-05-15T05:35:36;98088.13;;;14.12;68.42
48622;BME280;34421;48.944;9.460;2023-05-15T05:38:01;98098.19;;;14.22;67.99
48622;BME280;34421;48.944;9.460;2023-05-15T05:40:26;98087.31;;;14.28;67.53
48622;BME280;34421;48.944;9.460;2023-05-15T05:42:51;98094.38;;;14.34;67.30
48622;BME280;34421;48.944;9.460;2023-05-15T05:45:17;98091.84;;;14.45;67.02
48622;BME280;34421;48.944;9.460;2023-05-15T05:47:42;98093.44;;;14.57;67.28
48622;BME280;34421;48.944;9.460;2023-05-15T05:50:08;98099.75;;;14.68;66.16
48622;BME280;34421;48.944;9.460;2023-05-15T05:52:33;98105.19;;;14.73;66.10
48622;BME280;34421;48.944;9.460;2023-05-15T05:54:58;98104.03;;;14.86;66.02
48622;BME280;34421;48.944;9.460;2023-05-15T05:57:23;98102.13;;;15.03;65.33
48622;BME280;34421;48.944;9.460;2023-05-15T05:59:49;98093.47;;;15.18;65.06
48622;BME280;34421;48.944;9.460;2023-05-15T06:02:15;98093.34;;;15.30;64.70
48622;BME280;34421;48.944;9.460;2023-05-15T06:04:40;98099.66;;;15.41;64.63
48622;BME280;34421;48.944;9.460;2023-05-15T06:07:05;98094.44;;;15.56;64.18
48622;BME280;34421;48.944;9.460;2023-05-15T06:09:31;98095.50;;;15.55;63.85
48622;BME280;34421;48.944;9.460;2023-05-15T06:11:56;98094.06;;;15.69;63.43
48622;BME280;34421;48.944;9.460;2023-05-15T06:14:22;98098.69;;;15.74;63.25
48622;BME280;34421;48.944;9.460;2023-05-15T06:16:47;98099.13;;;15.93;62.84
48622;BME280;34421;48.944;9.460;2023-05-15T06:19:12;98103.38;;;16.16;61.62
48622;BME280;34421;48.944;9.460;2023-05-15T06:21:38;98103.56;;;16.41;61.23
48622;BME280;34421;48.944;9.460;2023-05-15T06:24:03;98101.22;;;16.50;61.23
48622;BME280;34421;48.944;9.460;2023-05-15T06:26:29;98108.41;;;16.72;60.67
48622;BME280;34421;48.944;9.460;2023-05-15T06:28:54;98107.72;;;16.92;60.06
48622;BME280;34421;48.944;9.460;2023-05-15T06:31:19;98108.34;;;17.09;59.83
48622;BME280;34421;48.944;9.460;2023-05-15T06:33:45;98099.03;;;17.27;58.97
48622;BME280;34421;48.944;9.460;2023-05-15T06:36:10;98106.94;;;17.59;58.31
48622;BME280;34421;48.944;9.460;2023-05-15T06:38:36;98101.69;;;19.57;55.15
48622;BME280;34421;48.944;9.460;2023-05-15T06:41:01;98101.25;;;23.33;47.43
48622;BME280;34421;48.944;9.460;2023-05-15T06:43:26;98105.13;;;26.52;41.45
48622;BME280;34421;48.944;9.460;2023-05-15T06:45:52;98097.53;;;28.90;36.87
48622;BME280;34421;48.944;9.460;2023-05-15T06:48:17;98103.78;;;30.26;33.40
48622;BME280;34421;48.944;9.460;2023-05-15T06:50:42;98095.19;;;29.13;34.03
48622;BME280;34421;48.944;9.460;2023-05-15T06:53:08;98097.63;;;28.15;34.98
48622;BME280;34421;48.944;9.460;2023-05-15T06:55:33;98094.63;;;28.62;34.39
48622;BME280;34421;48.944;9.460;2023-05-15T06:58:00;98086.00;;;29.83;32.93
48622;BME280;34421;48.944;9.460;2023-05-15T07:00:26;98087.81;;;31.70;30.30
48622;BME280;34421;48.944;9.460;2023-05-15T07:02:51;98084.75;;;33.95;26.96
48622;BME280;34421;48.944;9.460;2023-05-15T07:05:16;98084.38;;;35.49;25.07
48622;BME280;34421;48.944;9.460;2023-05-15T07:07:42;98081.34;;;36.67;23.39
48622;BME280;34421;48.944;9.460;2023-05-15T07:10:07;98080.63;;;35.24;24.62
48622;BME280;34421;48.944;9.460;2023-05-15T07:12:35;98087.81;;;34.16;25.86
48622;BME280;34421;48.944;9.460;2023-05-15T07:15:01;98076.19;;;36.62;23.20
48622;BME280;34421;48.944;9.460;2023-05-15T07:17:26;98064.56;;;38.17;20.79
48622;BME280;34421;48.944;9.460;2023-05-15T07:19:51;98067.13;;;39.16;20.26
48622;BME280;34421;48.944;9.460;2023-05-15T07:22:17;98057.59;;;40.27;19.13
48622;BME280;34421;48.944;9.460;2023-05-15T07:24:42;98061.91;;;41.13;18.11
48622;BME280;34421;48.944;9.460;2023-05-15T07:27:07;98070.75;;;39.54;19.96
48622;BME280;34421;48.944;9.460;2023-05-15T07:29:33;98059.91;;;40.59;18.90
48622;BME280;34421;48.944;9.460;2023-05-15T07:31:58;98054.56;;;41.66;17.61
48622;BME280;34421;48.944;9.460;2023-05-15T07:34:23;98059.84;;;42.93;16.52
48622;BME280;34421;48.944;9.460;2023-05-15T07:36:49;98061.41;;;43.72;16.10
48622;BME280;34421;48.944;9.460;2023-05-15T07:39:14;98055.56;;;44.08;15.80
48622;BME280;34421;48.944;9.460;2023-05-15T07:41:40;98060.34;;;43.37;16.28
48622;BME280;34421;48.944;9.460;2023-05-15T07:44:05;98059.09;;;41.60;16.87
48622;BME280;34421;48.944;9.460;2023-05-15T07:46:30;98056.25;;;41.16;17.35
48622;BME280;34421;48.944;9.460;2023-05-15T07:48:56;98064.50;;;39.43;18.61
48622;BME280;34421;48.944;9.460;2023-05-15T07:51:21;98066.34;;;37.39;20.26
48622;BME280;34421;48.944;9.460;2023-05-15T07:53:46;98062.94;;;38.90;19.18
48622;BME280;34421;48.944;9.460;2023-05-15T07:56:11;98064.56;;;38.10;19.76
48622;BME280;34421;48.944;9.460;2023-05-15T07:58:37;98067.91;;;39.58;18.46
48622;BME280;34421;48.944;9.460;2023-05-15T08:01:03;98052.53;;;40.15;17.96
48622;BME280;34421;48.944;9.460;2023-05-15T08:03:28;98059.88;;;38.73;18.98
48622;BME280;34421;48.944;9.460;2023-05-15T08:05:54;98049.19;;;38.68;19.21
48622;BME280;34421;48.944;9.460;2023-05-15T08:08:19;98056.03;;;39.09;19.22
48622;BME280;34421;48.944;9.460;2023-05-15T08:10:44;98045.16;;;38.77;18.94
48622;BME280;34421;48.944;9.460;2023-05-15T08:13:09;98061.56;;;36.76;20.97
48622;BME280;34421;48.944;9.460;2023-05-15T08:15:35;98060.31;;;34.64;22.88
48622;BME280;34421;48.944;9.460;2023-05-15T08:18:00;98050.44;;;36.54;21.55
48622;BME280;34421;48.944;9.460;2023-05-15T08:20:25;98050.66;;;38.87;19.64
48622;BME280;34421;48.944;9.460;2023-05-15T08:22:51;98046.31;;;40.65;18.04
48622;BME280;34421;48.944;9.460;2023-05-15T08:25:16;98037.59;;;42.69;16.59
48622;BME280;34421;48.944;9.460;2023-05-15T08:27:42;98035.69;;;43.15;16.09
48622;BME280;34421;48.944;9.460;2023-05-15T08:30:07;98040.56;;;41.89;17.09
48622;BME280;34421;48.944;9.460;2023-05-15T08:32:33;98038.66;;;43.24;15.93
48622;BME280;34421;48.944;9.460;2023-05-15T08:34:58;98033.84;;;43.71;15.31
48622;BME280;34421;48.944;9.460;2023-05-15T08:37:23;98037.75;;;44.15;14.64
48622;BME280;34421;48.944;9.460;2023-05-15T08:39:49;98039.44;;;40.42;16.90
48622;BME280;34421;48.944;9.460;2023-05-15T08:42:23;98039.75;;;40.75;16.97
48622;BME280;34421;48.944;9.460;2023-05-15T08:44:53;98043.97;;;39.23;18.00
48622;BME280;34421;48.944;9.460;2023-05-15T08:47:20;98042.72;;;38.16;18.95
48622;BME280;34421;48.944;9.460;2023-05-15T08:52:29;98028.78;;;42.87;15.14
48622;BME280;34421;48.944;9.460;2023-05-15T08:54:57;98024.78;;;43.79;14.73
48622;BME280;34421;48.944;9.460;2023-05-15T08:57:23;98025.16;;;43.94;14.53
48622;BME280;34421;48.944;9.460;2023-05-15T08:59:50;98029.38;;;44.79;13.56
48622;BME280;34421;48.944;9.460;2023-05-15T09:02:16;98021.97;;;44.60;13.77
48622;BME280;34421;48.944;9.460;2023-05-15T09:04:42;98014.34;;;45.42;12.97
48622;BME280;34421;48.944;9.460;2023-05-15T09:07:08;98017.50;;;46.10;12.45
48622;BME280;34421;48.944;9.460;2023-05-15T09:09:34;98012.03;;;46.97;11.87
48622;BME280;34421;48.944;9.460;2023-05-15T09:12:02;98011.75;;;47.68;11.88
48622;BME280;34421;48.944;9.460;2023-05-15T09:14:28;98010.38;;;46.50;12.37
48622;BME280;34421;48.944;9.460;2023-05-15T09:16:54;98008.28;;;46.91;12.28
48622;BME280;34421;48.944;9.460;2023-05-15T09:19:19;98002.84;;;47.24;12.00
48622;BME280;34421;48.944;9.460;2023-05-15T09:21:46;98003.66;;;47.34;12.24
48622;BME280;34421;48.944;9.460;2023-05-15T09:24:24;98000.78;;;47.89;11.68
48622;BME280;34421;48.944;9.460;2023-05-15T09:27:05;98007.19;;;47.99;11.61
48622;BME280;34421;48.944;9.460;2023-05-15T09:29:32;97990.72;;;48.39;11.22
48622;BME280;34421;48.944;9.460;2023-05-15T09:34:31;97998.91;;;48.71;10.61
48622;BME280;34421;48.944;9.460;2023-05-15T09:36:57;97989.53;;;48.65;10.96
48622;BME280;34421;48.944;9.460;2023-05-15T09:39:22;97991.25;;;47.59;11.80
48622;BME280;34421;48.944;9.460;2023-05-15T09:41:48;97990.78;;;47.33;11.90
48622;BME280;34421;48.944;9.460;2023-05-15T09:44:17;97986.69;;;46.97;12.29
48622;BME280;34421;48.944;9.460;2023-05-15T09:46:44;97980.47;;;47.02;12.21
48622;BME280;34421;48.944;9.460;2023-05-15T09:49:09;97976.44;;;46.63;12.50
48622;BME280;34421;48.944;9.460;2023-05-15T09:51:35;97980.19;;;46.50;12.11
48622;BME280;34421;48.944;9.460;2023-05-15T09:54:01;97971.06;;;46.46;12.30
48622;BME280;34421;48.944;9.460;2023-05-15T09:56:26;97986.84;;;43.00;14.43
48622;BME280;34421;48.944;9.460;2023-05-15T09:58:56;97984.16;;;40.06;16.20
48622;BME280;34421;48.944;9.460;2023-05-15T10:01:22;97980.59;;;41.71;15.63
48622;BME280;34421;48.944;9.460;2023-05-15T10:03:56;97970.00;;;43.33;14.82
48622;BME280;34421;48.944;9.460;2023-05-15T10:06:21;97956.75;;;44.43;13.87
48622;BME280;34421;48.944;9.460;2023-05-15T10:08:53;97953.78;;;45.07;13.44
48622;BME280;34421;48.944;9.460;2023-05-15T10:11:19;97966.47;;;44.89;13.31
48622;BME280;34421;48.944;9.460;2023-05-15T10:13:47;97965.28;;;41.79;15.33
48622;BME280;34421;48.944;9.460;2023-05-15T10:16:13;97958.19;;;42.96;14.66
48622;BME280;34421;48.944;9.460;2023-05-15T10:18:40;97957.06;;;44.32;13.43
48622;BME280;34421;48.944;9.460;2023-05-15T10:21:07;97944.69;;;44.68;13.46
48622;BME280;34421;48.944;9.460;2023-05-15T10:23:34;97950.16;;;42.49;14.33
48622;BME280;34421;48.944;9.460;2023-05-15T10:26:04;97960.44;;;39.30;16.61
48622;BME280;34421;48.944;9.460;2023-05-15T10:28:31;97955.81;;;39.09;17.03
48622;BME280;34421;48.944;9.460;2023-05-15T10:31:00;97957.56;;;38.43;17.16
48622;BME280;34421;48.944;9.460;2023-05-15T10:33:28;97946.28;;;39.82;16.13
48622;BME280;34421;48.944;9.460;2023-05-15T10:35:55;97925.69;;;42.00;14.36
48622;BME280;34421;48.944;9.460;2023-05-15T10:38:20;97932.28;;;40.13;15.67
48622;BME280;34421;48.944;9.460;2023-05-15T10:40:47;97926.31;;;39.53;16.68
48622;BME280;34421;48.944;9.460;2023-05-15T10:43:13;97930.25;;;37.54;17.87
48622;BME280;34421;48.944;9.460;2023-05-15T10:45:38;97927.25;;;37.02;18.63
48622;BME280;34421;48.944;9.460;2023-05-15T10:48:05;97926.81;;;36.96;18.44
48622;BME280;34421;48.944;9.460;2023-05-15T10:50:32;97913.66;;;38.20;17.91
48622;BME280;34421;48.944;9.460;2023-05-15T10:52:58;97912.13;;;39.74;16.36
48622;BME280;34421;48.944;9.460;2023-05-15T10:55:24;97905.84;;;40.24;14.97
48622;BME280;34421;48.944;9.460;2023-05-15T10:57:49;97901.22;;;40.65;15.26
48622;BME280;34421;48.944;9.460;2023-05-15T11:02:47;97905.34;;;41.24;14.79
48622;BME280;34421;48.944;9.460;2023-05-15T11:05:13;97898.09;;;41.82;14.06
48622;BME280;34421;48.944;9.460;2023-05-15T11:07:38;97906.75;;;42.24;14.05
48622;BME280;34421;48.944;9.460;2023-05-15T11:13:00;97924.88;;;41.24;15.63
48622;BME280;34421;48.944;9.460;2023-05-15T11:15:26;97933.75;;;39.29;15.98
48622;BME280;34421;48.944;9.460;2023-05-15T11:18:05;97948.19;;;36.17;16.91
48622;BME280;34421;48.944;9.460;2023-05-15T11:21:16;97966.84;;;33.65;18.11
48622;BME280;34421;48.944;9.460;2023-05-15T11:23:20;97958.41;;;31.47;20.77
48622;BME280;34421;48.944;9.460;2023-05-15T11:25:51;97956.56;;;29.93;22.70
48622;BME280;34421;48.944;9.460;2023-05-15T11:28:21;97972.84;;;29.21;24.24
48622;BME280;34421;48.944;9.460;2023-05-15T11:30:50;97967.19;;;28.31;25.28
48622;BME280;34421;48.944;9.460;2023-05-15T11:33:16;97974.19;;;27.54;26.22
48622;BME280;34421;48.944;9.460;2023-05-15T11:35:43;97968.97;;;26.89;27.47
48622;BME280;34421;48.944;9.460;2023-05-15T11:38:15;97960.31;;;26.40;28.66
48622;BME280;34421;48.944;9.460;2023-05-15T11:43:23;97970.69;;;25.65;29.00
48622;BME280;34421;48.944;9.460;2023-05-15T11:51:00;97968.63;;;24.78;31.46
48622;BME280;34421;48.944;9.460;2023-05-15T11:53:28;97965.34;;;24.59;31.80
48622;BME280;34421;48.944;9.460;2023-05-15T11:55:53;97968.38;;;24.58;32.09
48622;BME280;34421;48.944;9.460;2023-05-15T11:58:22;97962.13;;;24.57;32.46
48622;BME280;34421;48.944;9.460;2023-05-15T12:00:50;97965.50;;;24.54;32.16
48622;BME280;34421;48.944;9.460;2023-05-15T12:03:30;97959.06;;;24.19;32.88
48622;BME280;34421;48.944;9.460;2023-05-15T12:05:56;97954.56;;;23.92;35.24
48622;BME280;34421;48.944;9.460;2023-05-15T12:08:21;97957.53;;;23.81;35.92
48622;BME280;34421;48.944;9.460;2023-05-15T12:10:47;97959.63;;;23.84;36.07
48622;BME280;34421;48.944;9.460;2023-05-15T12:13:14;97959.97;;;23.69;35.77
48622;BME280;34421;48.944;9.460;2023-05-15T12:15:42;97968.09;;;23.47;36.43
48622;BME280;34421;48.944;9.460;2023-05-15T12:18:09;97974.00;;;23.26;36.88
48622;BME280;34421;48.944;9.460;2023-05-15T12:20:35;97972.31;;;23.03;36.23
48622;BME280;34421;48.944;9.460;2023-05-15T12:23:06;97971.50;;;22.88;36.37
48622;BME280;34421;48.944;9.460;2023-05-15T12:25:33;97970.59;;;23.07;35.79
48622;BME280;34421;48.944;9.460;2023-05-15T12:28:01;97963.94;;;23.27;35.88
48622;BME280;34421;48.944;9.460;2023-05-15T12:30:27;97965.72;;;23.31;35.90
48622;BME280;34421;48.944;9.460;2023-05-15T12:33:00;97961.75;;;23.15;34.97
48622;BME280;34421;48.944;9.460;2023-05-15T12:35:26;97955.72;;;23.18;34.55
48622;BME280;34421;48.944;9.460;2023-05-15T12:37:51;97958.16;;;23.06;34.40
48622;BME280;34421;48.944;9.460;2023-05-15T12:40:19;97954.47;;;23.24;33.17
48622;BME280;34421;48.944;9.460;2023-05-15T12:42:50;97947.00;;;23.66;31.92
48622;BME280;34421;48.944;9.460;2023-05-15T12:45:18;97935.78;;;24.04;32.83
48622;BME280;34421;48.944;9.460;2023-05-15T12:47:46;97942.44;;;24.29;32.66
48622;BME280;34421;48.944;9.460;2023-05-15T12:50:18;97941.25;;;24.44;31.17
48622;BME280;34421;48.944;9.460;2023-05-15T12:52:51;97936.41;;;24.41;31.57
48622;BME280;34421;48.944;9.460;2023-05-15T12:55:25;97936.22;;;24.28;30.86
48622;BME280;34421;48.944;9.460;2023-05-15T12:57:51;97938.38;;;24.18;31.32
48622;BME280;34421;48.944;9.460;2023-05-15T13:00:17;97934.28;;;23.98;31.90
48622;BME280;34421;48.944;9.460;2023-05-15T13:02:48;97938.00;;;23.79;32.74
48622;BME280;34421;48.944;9.460;2023-05-15T13:05:13;97930.81;;;23.61;32.74
48622;BME280;34421;48.944;9.460;2023-05-15T13:07:42;97928.72;;;23.35;33.25
48622;BME280;34421;48.944;9.460;2023-05-15T13:10:11;97925.41;;;23.25;33.45
48622;BME280;34421;48.944;9.460;2023-05-15T13:12:38;97927.09;;;23.34;33.82
48622;BME280;34421;48.944;9.460;2023-05-15T13:15:05;97913.34;;;23.53;34.05
48622;BME280;34421;48.944;9.460;2023-05-15T13:17:32;97907.28;;;23.56;33.28
48622;BME280;34421;48.944;9.460;2023-05-15T13:19:59;97908.88;;;23.71;33.47
48622;BME280;34421;48.944;9.460;2023-05-15T13:22:24;97909.38;;;24.04;32.99
48622;BME280;34421;48.944;9.460;2023-05-15T13:24:50;97905.91;;;24.44;32.83
48622;BME280;34421;48.944;9.460;2023-05-15T13:27:16;97907.78;;;24.92;32.42
48622;BME280;34421;48.944;9.460;2023-05-15T13:29:41;97896.16;;;25.26;32.19